sensor_id;sensor_type;location;lat;lon;timestamp;P1;durP1;ratioP1;P2;durP2;ratioP2
72920;SDS011;61064;51.654;5.476;2023-07-29T00:00:41;10.98;;;5.50;;
72920;SDS011;61064;51.654;5.476;2023-07-29T00:03:08;12.25;;;5.82;;
72920;SDS011;61064;51.654;5.476;2023-07-29T00:05:33;9.87;;;5.30;;
72920;SDS011;61064;51.654;5.476;2023-07-29T00:07:59;10.70;;;5.60;;
72920;SDS011;61064;51.654;5.476;2023-07-29T00:10:24;11.07;;;6.05;;
72920;SDS011;61064;51.654;5.476;2023-07-29T00:12:50;11.20;;;6.30;;
72920;SDS011;61064;51.654;5.476;2023-07-29T00:15:15;10.70;;;5.73;;
72920;SDS011;61064;51.654;5.476;2023-07-29T00:17:41;13.18;;;6.32;;
72920;SDS011;61064;51.654;5.476;2023-07-29T00:20:06;11.13;;;5.53;;
72920;SDS011;61064;51.654;5.476;2023-07-29T00:22:32;11.77;;;6.72;;
72920;SDS011;61064;51.654;5.476;2023-07-29T00:24:57;14.03;;;6.10;;
72920;SDS011;61064;51.654;5.476;2023-07-29T00:27:24;11.60;;;6.30;;
72920;SDS011;61064;51.654;5.476;2023-07-29T00:29:50;10.43;;;5.97;;
72920;SDS011;61064;51.654;5.476;2023-07-29T00:32:15;12.87;;;6.33;;
72920;SDS011;61064;51.654;5.476;2023-07-29T00:34:40;14.65;;;6.75;;
72920;SDS011;61064;51.654;5.476;2023-07-29T00:37:06;15.20;;;6.53;;
72920;SDS011;61064;51.654;5.476;2023-07-29T00:39:31;13.57;;;6.40;;
72920;SDS011;61064;51.654;5.476;2023-07-29T00:41:57;11.70;;;6.30;;
72920;SDS011;61064;51.654;5.476;2023-07-29T00:44:23;11.53;;;6.27;;
72920;SDS011;61064;51.654;5.476;2023-07-29T00:46:50;11.23;;;5.90;;
72920;SDS011;61064;51.654;5.476;2023-07-29T00:49:17;12.33;;;5.73;;
72920;SDS011;61064;51.654;5.476;2023-07-29T00:51:42;12.18;;;6.10;;
72920;SDS011;61064;51.654;5.476;2023-07-29T00:54:08;11.37;;;5.57;;
72920;SDS011;61064;51.654;5.476;2023-07-29T00:56:33;11.60;;;5.90;;
72920;SDS011;61064;51.654;5.476;2023-07-29T00:58:59;11.43;;;6.07;;
72920;SDS011;61064;51.654;5.476;2023-07-29T01:01:27;12.30;;;5.95;;
72920;SDS011;61064;51.654;5.476;2023-07-29T01:03:53;9.70;;;5.15;;
72920;SDS011;61064;51.654;5.476;2023-07-29T01:06:38;12.17;;;5.20;;
72920;SDS011;61064;51.654;5.476;2023-07-29T01:09:37;10.38;;;5.60;;
72920;SDS011;61064;51.654;5.476;2023-07-29T01:15:19;11.95;;;5.90;;
72920;SDS011;61064;51.654;5.476;2023-07-29T01:18:26;11.73;;;5.88;;
72920;SDS011;61064;51.654;5.476;2023-07-29T01:20:45;10.40;;;5.53;;
72920;SDS011;61064;51.654;5.476;2023-07-29T01:23:12;11.45;;;5.68;;
72920;SDS011;61064;51.654;5.476;2023-07-29T01:25:38;10.53;;;6.00;;
72920;SDS011;61064;51.654;5.476;2023-07-29T01:28:04;12.90;;;5.88;;
72920;SDS011;61064;51.654;5.476;2023-07-29T01:30:30;11.30;;;5.50;;
72920;SDS011;61064;51.654;5.476;2023-07-29T01:33:25;9.63;;;5.43;;
72920;SDS011;61064;51.654;5.476;2023-07-29T01:35:57;13.00;;;6.22;;
72920;SDS011;61064;51.654;5.476;2023-07-29T01:38:33;14.13;;;5.65;;
72920;SDS011;61064;51.654;5.476;2023-07-29T01:41:01;12.63;;;6.33;;
72920;SDS011;61064;51.654;5.476;2023-07-29T01:43:30;12.52;;;6.30;;
72920;SDS011;61064;51.654;5.476;2023-07-29T01:45:57;13.23;;;6.45;;
72920;SDS011;61064;51.654;5.476;2023-07-29T01:48:22;11.77;;;6.00;;
72920;SDS011;61064;51.654;5.476;2023-07-29T01:50:48;10.60;;;5.40;;
72920;SDS011;61064;51.654;5.476;2023-07-29T01:53:13;11.20;;;5.27;;
72920;SDS011;61064;51.654;5.476;2023-07-29T01:55:39;9.98;;;3.97;;
72920;SDS011;61064;51.654;5.476;2023-07-29T01:58:05;8.53;;;3.00;;
72920;SDS011;61064;51.654;5.476;2023-07-29T02:00:30;7.75;;;3.47;;
72920;SDS011;61064;51.654;5.476;2023-07-29T02:02:56;8.13;;;3.30;;
72920;SDS011;61064;51.654;5.476;2023-07-29T02:05:21;8.20;;;3.03;;
72920;SDS011;61064;51.654;5.476;2023-07-29T02:07:46;6.20;;;2.57;;
72920;SDS011;61064;51.654;5.476;2023-07-29T02:10:13;7.30;;;2.88;;
72920;SDS011;61064;51.654;5.476;2023-07-29T02:12:38;7.27;;;2.73;;
72920;SDS011;61064;51.654;5.476;2023-07-29T02:15:04;7.83;;;2.70;;
72920;SDS011;61064;51.654;5.476;2023-07-29T02:17:30;6.60;;;2.58;;
72920;SDS011;61064;51.654;5.476;2023-07-29T02:19:56;8.43;;;2.70;;
72920;SDS011;61064;51.654;5.476;2023-07-29T02:22:21;7.10;;;2.47;;
72920;SDS011;61064;51.654;5.476;2023-07-29T02:24:47;7.40;;;2.47;;
72920;SDS011;61064;51.654;5.476;2023-07-29T02:27:12;7.47;;;2.63;;
72920;SDS011;61064;51.654;5.476;2023-07-29T02:29:37;8.97;;;2.83;;
72920;SDS011;61064;51.654;5.476;2023-07-29T02:32:03;8.50;;;2.60;;
72920;SDS011;61064;51.654;5.476;2023-07-29T02:34:29;6.30;;;2.50;;
72920;SDS011;61064;51.654;5.476;2023-07-29T02:36:54;6.72;;;2.55;;
72920;SDS011;61064;51.654;5.476;2023-07-29T02:39:20;9.33;;;2.20;;
72920;SDS011;61064;51.654;5.476;2023-07-29T02:41:45;6.57;;;2.30;;
72920;SDS011;61064;51.654;5.476;2023-07-29T02:44:11;6.35;;;2.17;;
72920;SDS011;61064;51.654;5.476;2023-07-29T02:46:36;6.97;;;2.50;;
72920;SDS011;61064;51.654;5.476;2023-07-29T02:49:02;7.13;;;2.40;;
72920;SDS011;61064;51.654;5.476;2023-07-29T02:51:29;8.18;;;2.70;;
72920;SDS011;61064;51.654;5.476;2023-07-29T02:53:55;6.90;;;2.30;;
72920;SDS011;61064;51.654;5.476;2023-07-29T02:56:20;7.33;;;2.90;;
72920;SDS011;61064;51.654;5.476;2023-07-29T02:58:46;7.97;;;2.55;;
72920;SDS011;61064;51.654;5.476;2023-07-29T03:01:11;8.33;;;2.77;;
72920;SDS011;61064;51.654;5.476;2023-07-29T03:03:37;7.30;;;2.70;;
72920;SDS011;61064;51.654;5.476;2023-07-29T03:06:04;9.53;;;3.10;;
72920;SDS011;61064;51.654;5.476;2023-07-29T03:08:31;10.25;;;3.10;;
72920;SDS011;61064;51.654;5.476;2023-07-29T03:10:56;7.60;;;3.30;;
72920;SDS011;61064;51.654;5.476;2023-07-29T03:13:22;6.77;;;3.27;;
72920;SDS011;61064;51.654;5.476;2023-07-29T03:15:48;8.57;;;3.60;;
72920;SDS011;61064;51.654;5.476;2023-07-29T03:18:14;8.77;;;3.50;;
72920;SDS011;61064;51.654;5.476;2023-07-29T03:20:40;7.65;;;3.45;;
72920;SDS011;61064;51.654;5.476;2023-07-29T03:23:05;8.00;;;3.30;;
72920;SDS011;61064;51.654;5.476;2023-07-29T03:25:30;9.02;;;4.13;;
72920;SDS011;61064;51.654;5.476;2023-07-29T03:27:56;9.10;;;3.40;;
72920;SDS011;61064;51.654;5.476;2023-07-29T03:30:21;8.47;;;3.23;;
72920;SDS011;61064;51.654;5.476;2023-07-29T03:32:47;8.68;;;3.28;;
72920;SDS011;61064;51.654;5.476;2023-07-29T03:35:14;8.53;;;3.33;;
72920;SDS011;61064;51.654;5.476;2023-07-29T03:37:39;8.38;;;3.50;;
72920;SDS011;61064;51.654;5.476;2023-07-29T03:40:06;8.52;;;3.72;;
72920;SDS011;61064;51.654;5.476;2023-07-29T03:42:32;9.27;;;3.80;;
72920;SDS011;61064;51.654;5.476;2023-07-29T03:44:57;10.60;;;4.40;;
72920;SDS011;61064;51.654;5.476;2023-07-29T03:47:23;9.57;;;3.57;;
72920;SDS011;61064;51.654;5.476;2023-07-29T03:49:48;7.63;;;3.37;;
72920;SDS011;61064;51.654;5.476;2023-07-29T03:52:14;8.43;;;3.63;;
72920;SDS011;61064;51.654;5.476;2023-07-29T03:54:39;8.38;;;3.70;;
72920;SDS011;61064;51.654;5.476;2023-07-29T03:57:04;10.53;;;3.60;;
72920;SDS011;61064;51.654;5.476;2023-07-29T03:59:30;8.17;;;3.70;;
72920;SDS011;61064;51.654;5.476;2023-07-29T04:01:56;9.65;;;3.55;;
72920;SDS011;61064;51.654;5.476;2023-07-29T04:04:21;7.80;;;3.40;;
72920;SDS011;61064;51.654;5.476;2023-07-29T04:06:46;8.00;;;3.10;;
72920;SDS011;61064;51.654;5.476;2023-07-29T04:09:12;8.80;;;3.43;;
72920;SDS011;61064;51.654;5.476;2023-07-29T04:11:38;7.63;;;2.95;;
72920;SDS011;61064;51.654;5.476;2023-07-29T04:14:03;8.23;;;2.97;;
72920;SDS011;61064;51.654;5.476;2023-07-29T04:16:28;9.33;;;3.20;;
72920;SDS011;61064;51.654;5.476;2023-07-29T04:18:54;11.37;;;3.50;;
72920;SDS011;61064;51.654;5.476;2023-07-29T04:21:19;9.30;;;3.20;;
72920;SDS011;61064;51.654;5.476;2023-07-29T04:23:45;8.10;;;3.20;;
72920;SDS011;61064;51.654;5.476;2023-07-29T04:26:10;7.32;;;3.20;;
72920;SDS011;61064;51.654;5.476;2023-07-29T04:28:36;7.90;;;2.87;;
72920;SDS011;61064;51.654;5.476;2023-07-29T04:31:01;8.57;;;3.17;;
72920;SDS011;61064;51.654;5.476;2023-07-29T04:33:26;8.23;;;2.90;;
72920;SDS011;61064;51.654;5.476;2023-07-29T04:35:52;8.27;;;3.50;;
72920;SDS011;61064;51.654;5.476;2023-07-29T04:38:17;8.93;;;3.13;;
72920;SDS011;61064;51.654;5.476;2023-07-29T04:40:43;6.78;;;2.83;;
72920;SDS011;61064;51.654;5.476;2023-07-29T04:43:08;9.87;;;3.13;;
72920;SDS011;61064;51.654;5.476;2023-07-29T04:45:33;7.80;;;2.97;;
72920;SDS011;61064;51.654;5.476;2023-07-29T04:47:59;11.20;;;3.20;;
72920;SDS011;61064;51.654;5.476;2023-07-29T04:50:24;7.38;;;3.20;;
72920;SDS011;61064;51.654;5.476;2023-07-29T04:52:49;9.87;;;2.73;;
72920;SDS011;61064;51.654;5.476;2023-07-29T04:55:15;9.33;;;3.27;;
72920;SDS011;61064;51.654;5.476;2023-07-29T04:57:40;9.33;;;3.50;;
72920;SDS011;61064;51.654;5.476;2023-07-29T05:00:06;8.18;;;3.33;;
72920;SDS011;61064;51.654;5.476;2023-07-29T05:02:32;6.97;;;2.83;;
72920;SDS011;61064;51.654;5.476;2023-07-29T05:04:57;8.05;;;3.00;;
72920;SDS011;61064;51.654;5.476;2023-07-29T05:07:23;8.20;;;2.93;;
72920;SDS011;61064;51.654;5.476;2023-07-29T05:09:48;7.93;;;3.07;;
72920;SDS011;61064;51.654;5.476;2023-07-29T05:12:13;8.47;;;2.77;;
72920;SDS011;61064;51.654;5.476;2023-07-29T05:14:39;7.60;;;2.90;;
72920;SDS011;61064;51.654;5.476;2023-07-29T05:17:05;8.20;;;3.27;;
72920;SDS011;61064;51.654;5.476;2023-07-29T05:19:31;9.50;;;3.13;;
72920;SDS011;61064;51.654;5.476;2023-07-29T05:21:56;8.55;;;3.00;;
72920;SDS011;61064;51.654;5.476;2023-07-29T05:24:22;9.10;;;2.90;;
72920;SDS011;61064;51.654;5.476;2023-07-29T05:26:48;7.88;;;2.97;;
72920;SDS011;61064;51.654;5.476;2023-07-29T05:29:14;8.80;;;2.75;;
72920;SDS011;61064;51.654;5.476;2023-07-29T05:31:39;7.50;;;3.00;;
72920;SDS011;61064;51.654;5.476;2023-07-29T05:34:05;7.47;;;2.53;;
72920;SDS011;61064;51.654;5.476;2023-07-29T05:36:30;8.00;;;2.72;;
72920;SDS011;61064;51.654;5.476;2023-07-29T05:38:56;7.63;;;2.70;;
72920;SDS011;61064;51.654;5.476;2023-07-29T05:41:21;6.90;;;2.50;;
72920;SDS011;61064;51.654;5.476;2023-07-29T05:43:47;9.07;;;2.67;;
72920;SDS011;61064;51.654;5.476;2023-07-29T05:46:12;6.45;;;2.38;;
72920;SDS011;61064;51.654;5.476;2023-07-29T05:48:37;6.57;;;2.70;;
72920;SDS011;61064;51.654;5.476;2023-07-29T05:51:03;7.97;;;2.70;;
72920;SDS011;61064;51.654;5.476;2023-07-29T05:53:30;6.50;;;2.40;;
72920;SDS011;61064;51.654;5.476;2023-07-29T05:55:56;7.90;;;2.40;;
72920;SDS011;61064;51.654;5.476;2023-07-29T05:58:21;6.40;;;2.20;;
72920;SDS011;61064;51.654;5.476;2023-07-29T06:00:47;6.63;;;2.33;;
72920;SDS011;61064;51.654;5.476;2023-07-29T06:03:12;6.40;;;2.27;;
72920;SDS011;61064;51.654;5.476;2023-07-29T06:05:38;7.78;;;2.20;;
72920;SDS011;61064;51.654;5.476;2023-07-29T06:08:04;7.07;;;2.17;;
72920;SDS011;61064;51.654;5.476;2023-07-29T06:10:29;6.80;;;2.22;;
72920;SDS011;61064;51.654;5.476;2023-07-29T06:12:55;7.37;;;2.20;;
72920;SDS011;61064;51.654;5.476;2023-07-29T06:15:20;6.10;;;2.10;;
72920;SDS011;61064;51.654;5.476;2023-07-29T06:17:47;5.72;;;2.05;;
72920;SDS011;61064;51.654;5.476;2023-07-29T06:20:13;6.20;;;2.10;;
72920;SDS011;61064;51.654;5.476;2023-07-29T06:22:38;6.00;;;1.85;;
72920;SDS011;61064;51.654;5.476;2023-07-29T06:25:04;6.13;;;2.17;;
72920;SDS011;61064;51.654;5.476;2023-07-29T06:27:29;6.43;;;2.30;;
72920;SDS011;61064;51.654;5.476;2023-07-29T06:29:55;7.97;;;2.97;;
72920;SDS011;61064;51.654;5.476;2023-07-29T06:32:20;9.97;;;3.10;;
72920;SDS011;61064;51.654;5.476;2023-07-29T06:34:45;7.60;;;2.77;;
72920;SDS011;61064;51.654;5.476;2023-07-29T06:37:11;8.73;;;3.13;;
72920;SDS011;61064;51.654;5.476;2023-07-29T06:39:36;7.20;;;2.90;;
72920;SDS011;61064;51.654;5.476;2023-07-29T06:42:02;9.77;;;2.80;;
72920;SDS011;61064;51.654;5.476;2023-07-29T06:44:28;7.18;;;2.80;;
72920;SDS011;61064;51.654;5.476;2023-07-29T06:46:53;7.17;;;2.57;;
72920;SDS011;61064;51.654;5.476;2023-07-29T06:49:18;7.00;;;2.50;;
72920;SDS011;61064;51.654;5.476;2023-07-29T06:51:44;7.17;;;2.47;;
72920;SDS011;61064;51.654;5.476;2023-07-29T06:54:09;8.00;;;2.53;;
72920;SDS011;61064;51.654;5.476;2023-07-29T06:56:34;9.27;;;2.83;;
72920;SDS011;61064;51.654;5.476;2023-07-29T06:59:00;7.87;;;2.40;;
72920;SDS011;61064;51.654;5.476;2023-07-29T07:01:25;7.27;;;2.60;;
72920;SDS011;61064;51.654;5.476;2023-07-29T07:03:50;7.27;;;2.50;;
72920;SDS011;61064;51.654;5.476;2023-07-29T07:06:19;6.95;;;2.17;;
72920;SDS011;61064;51.654;5.476;2023-07-29T07:08:45;6.63;;;2.13;;
72920;SDS011;61064;51.654;5.476;2023-07-29T07:11:11;7.37;;;1.93;;
72920;SDS011;61064;51.654;5.476;2023-07-29T07:13:36;7.20;;;1.93;;
72920;SDS011;61064;51.654;5.476;2023-07-29T07:16:01;6.83;;;2.00;;
72920;SDS011;61064;51.654;5.476;2023-07-29T07:18:27;9.07;;;2.40;;
72920;SDS011;61064;51.654;5.476;2023-07-29T07:20:52;8.93;;;2.30;;
72920;SDS011;61064;51.654;5.476;2023-07-29T07:23:18;6.20;;;2.00;;
72920;SDS011;61064;51.654;5.476;2023-07-29T07:25:43;5.78;;;2.03;;
72920;SDS011;61064;51.654;5.476;2023-07-29T07:28:09;7.00;;;2.33;;
72920;SDS011;61064;51.654;5.476;2023-07-29T07:30:35;6.47;;;2.00;;
72920;SDS011;61064;51.654;5.476;2023-07-29T07:33:00;5.20;;;1.73;;
72920;SDS011;61064;51.654;5.476;2023-07-29T07:35:26;6.82;;;2.05;;
72920;SDS011;61064;51.654;5.476;2023-07-29T07:37:51;7.43;;;2.07;;
72920;SDS011;61064;51.654;5.476;2023-07-29T07:40:17;6.13;;;2.13;;
72920;SDS011;61064;51.654;5.476;2023-07-29T07:42:42;7.37;;;2.03;;
72920;SDS011;61064;51.654;5.476;2023-07-29T07:45:08;5.93;;;1.83;;
72920;SDS011;61064;51.654;5.476;2023-07-29T07:47:33;5.83;;;2.00;;
72920;SDS011;61064;51.654;5.476;2023-07-29T07:49:58;7.00;;;2.10;;
72920;SDS011;61064;51.654;5.476;2023-07-29T07:52:24;6.20;;;1.77;;
72920;SDS011;61064;51.654;5.476;2023-07-29T07:54:52;6.63;;;2.00;;
72920;SDS011;61064;51.654;5.476;2023-07-29T07:57:19;5.77;;;2.10;;
72920;SDS011;61064;51.654;5.476;2023-07-29T07:59:45;7.72;;;2.08;;
72920;SDS011;61064;51.654;5.476;2023-07-29T08:02:10;7.77;;;2.10;;
72920;SDS011;61064;51.654;5.476;2023-07-29T08:04:36;6.23;;;1.90;;
72920;SDS011;61064;51.654;5.476;2023-07-29T08:07:01;6.00;;;1.93;;
72920;SDS011;61064;51.654;5.476;2023-07-29T08:09:27;5.87;;;2.10;;
72920;SDS011;61064;51.654;5.476;2023-07-29T08:11:52;8.03;;;1.97;;
72920;SDS011;61064;51.654;5.476;2023-07-29T08:14:17;5.87;;;2.03;;
72920;SDS011;61064;51.654;5.476;2023-07-29T08:16:43;6.00;;;2.40;;
72920;SDS011;61064;51.654;5.476;2023-07-29T08:19:08;5.77;;;2.10;;
72920;SDS011;61064;51.654;5.476;2023-07-29T08:21:34;6.78;;;2.80;;
72920;SDS011;61064;51.654;5.476;2023-07-29T08:24:00;7.13;;;2.45;;
72920;SDS011;61064;51.654;5.476;2023-07-29T08:26:25;8.00;;;2.50;;
72920;SDS011;61064;51.654;5.476;2023-07-29T08:28:51;5.97;;;2.40;;
72920;SDS011;61064;51.654;5.476;2023-07-29T08:31:16;7.07;;;2.60;;
72920;SDS011;61064;51.654;5.476;2023-07-29T08:33:42;5.70;;;2.10;;
72920;SDS011;61064;51.654;5.476;2023-07-29T08:36:07;6.57;;;2.50;;
72920;SDS011;61064;51.654;5.476;2023-07-29T08:38:32;6.47;;;2.20;;
72920;SDS011;61064;51.654;5.476;2023-07-29T08:46:47;6.57;;;1.70;;
72920;SDS011;61064;51.654;5.476;2023-07-29T08:49:12;5.13;;;1.70;;
72920;SDS011;61064;51.654;5.476;2023-07-29T08:51:43;5.88;;;1.85;;
72920;SDS011;61064;51.654;5.476;2023-07-29T08:54:11;5.53;;;2.10;;
72920;SDS011;61064;51.654;5.476;2023-07-29T08:56:38;6.28;;;1.80;;
72920;SDS011;61064;51.654;5.476;2023-07-29T08:59:05;5.78;;;1.60;;
72920;SDS011;61064;51.654;5.476;2023-07-29T09:01:32;7.73;;;1.70;;
72920;SDS011;61064;51.654;5.476;2023-07-29T09:03:57;5.70;;;1.30;;
72920;SDS011;61064;51.654;5.476;2023-07-29T09:06:23;6.20;;;1.60;;
72920;SDS011;61064;51.654;5.476;2023-07-29T09:08:50;5.90;;;1.60;;
72920;SDS011;61064;51.654;5.476;2023-07-29T09:11:18;5.37;;;1.50;;
72920;SDS011;61064;51.654;5.476;2023-07-29T09:13:44;5.97;;;1.58;;
72920;SDS011;61064;51.654;5.476;2023-07-29T09:16:09;4.60;;;1.23;;
72920;SDS011;61064;51.654;5.476;2023-07-29T09:18:35;5.30;;;1.40;;
72920;SDS011;61064;51.654;5.476;2023-07-29T09:21:00;5.07;;;1.37;;
72920;SDS011;61064;51.654;5.476;2023-07-29T09:23:26;4.73;;;1.20;;
72920;SDS011;61064;51.654;5.476;2023-07-29T09:26:00;8.63;;;1.35;;
72920;SDS011;61064;51.654;5.476;2023-07-29T09:28:28;5.10;;;1.33;;
72920;SDS011;61064;51.654;5.476;2023-07-29T09:30:58;4.50;;;0.90;;
72920;SDS011;61064;51.654;5.476;2023-07-29T09:33:33;5.47;;;1.10;;
72920;SDS011;61064;51.654;5.476;2023-07-29T09:36:01;5.85;;;0.88;;
72920;SDS011;61064;51.654;5.476;2023-07-29T09:38:36;3.90;;;0.82;;
72920;SDS011;61064;51.654;5.476;2023-07-29T09:41:02;4.10;;;0.95;;
72920;SDS011;61064;51.654;5.476;2023-07-29T09:43:31;4.73;;;1.00;;
72920;SDS011;61064;51.654;5.476;2023-07-29T09:46:04;4.75;;;0.88;;
72920;SDS011;61064;51.654;5.476;2023-07-29T09:48:35;7.00;;;1.20;;
72920;SDS011;61064;51.654;5.476;2023-07-29T09:51:14;4.60;;;0.90;;
72920;SDS011;61064;51.654;5.476;2023-07-29T09:53:43;5.35;;;1.10;;
72920;SDS011;61064;51.654;5.476;2023-07-29T09:56:10;4.85;;;1.00;;
72920;SDS011;61064;51.654;5.476;2023-07-29T09:58:37;5.03;;;1.05;;
72920;SDS011;61064;51.654;5.476;2023-07-29T10:01:04;3.53;;;0.90;;
72920;SDS011;61064;51.654;5.476;2023-07-29T10:03:32;4.60;;;1.00;;
72920;SDS011;61064;51.654;5.476;2023-07-29T10:05:59;5.88;;;1.17;;
72920;SDS011;61064;51.654;5.476;2023-07-29T10:08:28;4.05;;;0.90;;
72920;SDS011;61064;51.654;5.476;2023-07-29T10:10:55;4.30;;;0.80;;
72920;SDS011;61064;51.654;5.476;2023-07-29T10:13:21;4.47;;;1.03;;
72920;SDS011;61064;51.654;5.476;2023-07-29T10:15:46;3.80;;;1.00;;
72920;SDS011;61064;51.654;5.476;2023-07-29T10:18:13;3.75;;;1.00;;
72920;SDS011;61064;51.654;5.476;2023-07-29T10:20:41;3.35;;;0.90;;
72920;SDS011;61064;51.654;5.476;2023-07-29T10:23:08;4.05;;;1.00;;
72920;SDS011;61064;51.654;5.476;2023-07-29T10:25:38;5.25;;;0.90;;
72920;SDS011;61064;51.654;5.476;2023-07-29T10:28:07;5.27;;;1.10;;
72920;SDS011;61064;51.654;5.476;2023-07-29T10:30:35;5.15;;;1.00;;
72920;SDS011;61064;51.654;5.476;2023-07-29T10:33:12;3.88;;;1.13;;
72920;SDS011;61064;51.654;5.476;2023-07-29T10:35:39;4.85;;;1.00;;
72920;SDS011;61064;51.654;5.476;2023-07-29T10:38:05;4.72;;;1.35;;
72920;SDS011;61064;51.654;5.476;2023-07-29T10:40:45;4.33;;;1.30;;
72920;SDS011;61064;51.654;5.476;2023-07-29T10:43:36;5.50;;;1.40;;
72920;SDS011;61064;51.654;5.476;2023-07-29T10:46:15;5.70;;;1.45;;
72920;SDS011;61064;51.654;5.476;2023-07-29T10:48:42;6.30;;;1.80;;
72920;SDS011;61064;51.654;5.476;2023-07-29T10:54:02;5.37;;;1.40;;
72920;SDS011;61064;51.654;5.476;2023-07-29T10:56:54;5.10;;;1.50;;
72920;SDS011;61064;51.654;5.476;2023-07-29T10:59:31;4.32;;;1.48;;
72920;SDS011;61064;51.654;5.476;2023-07-29T11:01:58;4.68;;;1.42;;
72920;SDS011;61064;51.654;5.476;2023-07-29T11:04:27;6.75;;;1.40;;
72920;SDS011;61064;51.654;5.476;2023-07-29T11:15:30;4.50;;;1.20;;
72920;SDS011;61064;51.654;5.476;2023-07-29T11:18:04;6.07;;;1.30;;
72920;SDS011;61064;51.654;5.476;2023-07-29T11:20:43;4.77;;;1.33;;
72920;SDS011;61064;51.654;5.476;2023-07-29T11:23:10;4.72;;;1.55;;
72920;SDS011;61064;51.654;5.476;2023-07-29T11:25:35;4.63;;;1.40;;
72920;SDS011;61064;51.654;5.476;2023-07-29T11:28:02;3.97;;;1.30;;
72920;SDS011;61064;51.654;5.476;2023-07-29T11:30:28;5.88;;;1.20;;
72920;SDS011;61064;51.654;5.476;2023-07-29T11:32:56;5.38;;;1.42;;
72920;SDS011;61064;51.654;5.476;2023-07-29T11:35:23;4.03;;;1.20;;
72920;SDS011;61064;51.654;5.476;2023-07-29T11:38:07;6.80;;;1.30;;
72920;SDS011;61064;51.654;5.476;2023-07-29T11:40:33;4.70;;;1.10;;
72920;SDS011;61064;51.654;5.476;2023-07-29T11:42:59;6.30;;;1.40;;
72920;SDS011;61064;51.654;5.476;2023-07-29T11:45:33;4.38;;;1.30;;
72920;SDS011;61064;51.654;5.476;2023-07-29T11:48:04;4.70;;;1.55;;
72920;SDS011;61064;51.654;5.476;2023-07-29T11:50:29;4.85;;;1.45;;
72920;SDS011;61064;51.654;5.476;2023-07-29T11:53:00;5.50;;;1.83;;
72920;SDS011;61064;51.654;5.476;2023-07-29T11:55:33;5.50;;;2.25;;
72920;SDS011;61064;51.654;5.476;2023-07-29T11:57:59;8.48;;;2.38;;
72920;SDS011;61064;51.654;5.476;2023-07-29T12:00:26;7.80;;;2.47;;
72920;SDS011;61064;51.654;5.476;2023-07-29T12:02:52;5.90;;;1.10;;
72920;SDS011;61064;51.654;5.476;2023-07-29T12:05:18;8.70;;;0.98;;
72920;SDS011;61064;51.654;5.476;2023-07-29T12:07:48;4.78;;;1.00;;
72920;SDS011;61064;51.654;5.476;2023-07-29T12:10:16;5.83;;;0.90;;
72920;SDS011;61064;51.654;5.476;2023-07-29T12:12:56;4.18;;;0.90;;
72920;SDS011;61064;51.654;5.476;2023-07-29T12:15:28;5.07;;;0.90;;
72920;SDS011;61064;51.654;5.476;2023-07-29T12:17:55;5.80;;;1.10;;
72920;SDS011;61064;51.654;5.476;2023-07-29T12:20:22;5.18;;;0.90;;
72920;SDS011;61064;51.654;5.476;2023-07-29T12:22:59;4.40;;;0.87;;
72920;SDS011;61064;51.654;5.476;2023-07-29T12:25:30;4.10;;;0.80;;
72920;SDS011;61064;51.654;5.476;2023-07-29T12:27:55;3.55;;;0.88;;
72920;SDS011;61064;51.654;5.476;2023-07-29T12:30:26;3.42;;;0.80;;
72920;SDS011;61064;51.654;5.476;2023-07-29T12:32:55;4.00;;;0.90;;
72920;SDS011;61064;51.654;5.476;2023-07-29T12:35:24;6.93;;;1.20;;
72920;SDS011;61064;51.654;5.476;2023-07-29T12:38:00;3.97;;;1.15;;
72920;SDS011;61064;51.654;5.476;2023-07-29T12:40:26;5.18;;;1.38;;
72920;SDS011;61064;51.654;5.476;2023-07-29T12:42:52;6.18;;;1.50;;
72920;SDS011;61064;51.654;5.476;2023-07-29T12:45:23;5.87;;;2.10;;
72920;SDS011;61064;51.654;5.476;2023-07-29T12:47:53;7.20;;;1.90;;
72920;SDS011;61064;51.654;5.476;2023-07-29T12:50:19;5.50;;;2.05;;
72920;SDS011;61064;51.654;5.476;2023-07-29T12:52:49;5.97;;;2.17;;
72920;SDS011;61064;51.654;5.476;2023-07-29T12:55:14;6.03;;;2.30;;
72920;SDS011;61064;51.654;5.476;2023-07-29T12:57:43;7.17;;;2.53;;
72920;SDS011;61064;51.654;5.476;2023-07-29T13:00:11;5.45;;;2.55;;
72920;SDS011;61064;51.654;5.476;2023-07-29T13:02:42;6.82;;;3.10;;
72920;SDS011;61064;51.654;5.476;2023-07-29T13:05:11;9.57;;;3.75;;
72920;SDS011;61064;51.654;5.476;2023-07-29T13:07:47;8.43;;;3.00;;
72920;SDS011;61064;51.654;5.476;2023-07-29T13:10:15;8.88;;;3.30;;
72920;SDS011;61064;51.654;5.476;2023-07-29T13:12:48;8.10;;;3.10;;
72920;SDS011;61064;51.654;5.476;2023-07-29T13:15:14;8.90;;;2.75;;
72920;SDS011;61064;51.654;5.476;2023-07-29T13:17:42;6.53;;;2.85;;
72920;SDS011;61064;51.654;5.476;2023-07-29T13:20:10;6.97;;;2.60;;
72920;SDS011;61064;51.654;5.476;2023-07-29T13:22:39;6.97;;;2.60;;
72920;SDS011;61064;51.654;5.476;2023-07-29T13:25:24;6.85;;;2.72;;
72920;SDS011;61064;51.654;5.476;2023-07-29T13:27:52;6.50;;;2.20;;
72920;SDS011;61064;51.654;5.476;2023-07-29T13:30:21;5.03;;;2.00;;
72920;SDS011;61064;51.654;5.476;2023-07-29T13:32:52;7.38;;;2.00;;
72920;SDS011;61064;51.654;5.476;2023-07-29T13:35:18;5.90;;;2.00;;
72920;SDS011;61064;51.654;5.476;2023-07-29T13:37:43;6.18;;;2.10;;
72920;SDS011;61064;51.654;5.476;2023-07-29T13:40:11;5.57;;;1.90;;
72920;SDS011;61064;51.654;5.476;2023-07-29T13:42:37;6.40;;;2.00;;
72920;SDS011;61064;51.654;5.476;2023-07-29T13:45:02;5.43;;;1.70;;
72920;SDS011;61064;51.654;5.476;2023-07-29T13:47:28;4.13;;;1.30;;
72920;SDS011;61064;51.654;5.476;2023-07-29T13:49:54;5.27;;;1.60;;
72920;SDS011;61064;51.654;5.476;2023-07-29T13:52:19;4.10;;;1.33;;
72920;SDS011;61064;51.654;5.476;2023-07-29T13:54:46;4.25;;;1.25;;
72920;SDS011;61064;51.654;5.476;2023-07-29T13:57:11;4.00;;;1.30;;
72920;SDS011;61064;51.654;5.476;2023-07-29T13:59:37;4.75;;;1.30;;
72920;SDS011;61064;51.654;5.476;2023-07-29T14:02:05;5.13;;;1.40;;
72920;SDS011;61064;51.654;5.476;2023-07-29T14:04:34;3.72;;;1.20;;
72920;SDS011;61064;51.654;5.476;2023-07-29T14:07:00;5.03;;;1.45;;
72920;SDS011;61064;51.654;5.476;2023-07-29T14:09:25;4.77;;;1.20;;
72920;SDS011;61064;51.654;5.476;2023-07-29T14:11:52;4.53;;;1.23;;
72920;SDS011;61064;51.654;5.476;2023-07-29T14:14:17;5.03;;;1.40;;
72920;SDS011;61064;51.654;5.476;2023-07-29T14:16:42;6.28;;;1.30;;
72920;SDS011;61064;51.654;5.476;2023-07-29T14:19:11;4.77;;;1.40;;
72920;SDS011;61064;51.654;5.476;2023-07-29T14:21:37;4.50;;;1.15;;
72920;SDS011;61064;51.654;5.476;2023-07-29T14:24:02;4.40;;;1.30;;
72920;SDS011;61064;51.654;5.476;2023-07-29T14:26:28;4.53;;;1.20;;
72920;SDS011;61064;51.654;5.476;2023-07-29T14:28:53;4.17;;;1.00;;
72920;SDS011;61064;51.654;5.476;2023-07-29T14:31:22;3.63;;;1.00;;
72920;SDS011;61064;51.654;5.476;2023-07-29T14:33:47;4.45;;;1.17;;
72920;SDS011;61064;51.654;5.476;2023-07-29T14:36:14;4.30;;;1.20;;
72920;SDS011;61064;51.654;5.476;2023-07-29T14:38:40;5.25;;;1.17;;
72920;SDS011;61064;51.654;5.476;2023-07-29T14:41:06;3.85;;;1.05;;
72920;SDS011;61064;51.654;5.476;2023-07-29T14:43:32;4.20;;;1.00;;
72920;SDS011;61064;51.654;5.476;2023-07-29T14:45:57;3.93;;;1.23;;
72920;SDS011;61064;51.654;5.476;2023-07-29T14:48:23;4.50;;;1.10;;
72920;SDS011;61064;51.654;5.476;2023-07-29T14:50:48;3.23;;;1.10;;
72920;SDS011;61064;51.654;5.476;2023-07-29T14:53:13;4.67;;;1.30;;
72920;SDS011;61064;51.654;5.476;2023-07-29T14:55:39;3.67;;;1.03;;
72920;SDS011;61064;51.654;5.476;2023-07-29T14:58:04;4.25;;;1.30;;
72920;SDS011;61064;51.654;5.476;2023-07-29T15:00:30;4.10;;;1.30;;
72920;SDS011;61064;51.654;5.476;2023-07-29T15:02:55;4.13;;;1.40;;
72920;SDS011;61064;51.654;5.476;2023-07-29T15:05:20;4.40;;;1.30;;